createdAt,value
2018-02-23T00:02:10.879Z,2.63
2018-02-23T00:04:37.117Z,2.33
2018-02-23T00:07:03.336Z,2.67
2018-02-23T00:09:29.529Z,2.83
2018-02-23T00:11:55.795Z,2.70
2018-02-23T00:14:21.988Z,2.80
2018-02-23T00:16:48.161Z,3.17
2018-02-23T00:19:14.393Z,3.00
2018-02-23T00:21:40.957Z,2.87
2018-02-23T00:24:07.258Z,2.93
2018-02-23T00:26:33.438Z,2.73
2018-02-23T00:28:59.672Z,3.10
2018-02-23T00:31:25.837Z,2.67
2018-02-23T00:33:52.302Z,3.10
2018-02-23T00:36:18.495Z,2.60
2018-02-23T00:38:44.962Z,2.60
2018-02-23T00:41:11.161Z,2.70
2018-02-23T00:43:37.362Z,2.40
2018-02-23T00:46:03.568Z,2.50
2018-02-23T00:48:29.757Z,2.40
2018-02-23T00:50:55.989Z,2.63
2018-02-23T00:53:22.436Z,2.40
2018-02-23T00:55:48.845Z,2.57
2018-02-23T00:58:15.062Z,2.33
2018-02-23T01:00:41.314Z,2.47
2018-02-23T01:03:07.532Z,2.97
2018-02-23T01:05:33.709Z,2.80
2018-02-23T01:07:59.933Z,2.40
2018-02-23T01:10:26.145Z,2.63
2018-02-23T01:12:52.403Z,2.73
2018-02-23T01:15:18.633Z,2.90
2018-02-23T01:17:44.817Z,2.00
2018-02-23T01:20:11.025Z,2.20
2018-02-23T01:22:37.220Z,2.50
2018-02-23T01:25:03.817Z,2.60
2018-02-23T01:27:29.991Z,2.23
2018-02-23T01:29:56.190Z,2.13
2018-02-23T01:32:22.412Z,2.10
2018-02-23T01:34:48.613Z,2.70
2018-02-23T01:37:14.846Z,2.43
2018-02-23T01:39:41.022Z,2.60
2018-02-23T01:42:07.202Z,2.40
2018-02-23T01:44:33.401Z,2.90
2018-02-23T01:46:59.631Z,2.43
2018-02-23T01:49:25.830Z,2.33
2018-02-23T01:51:52.016Z,2.40
2018-02-23T01:54:18.242Z,2.60
2018-02-23T01:56:44.454Z,2.27
2018-02-23T01:59:10.707Z,2.03
2018-02-23T02:01:37.237Z,2.30
2018-02-23T02:04:03.420Z,2.07
2018-02-23T02:06:29.898Z,2.80
2018-02-23T02:08:56.138Z,2.40
2018-02-23T02:11:22.546Z,2.40
2018-02-23T02:13:48.838Z,2.07
2018-02-23T02:16:15.035Z,2.53
2018-02-23T02:18:41.289Z,2.17
2018-02-23T02:21:07.476Z,1.90
2018-02-23T02:23:33.656Z,2.30
2018-02-23T02:25:59.895Z,2.30
2018-02-23T02:28:26.130Z,2.40
2018-02-23T02:30:52.335Z,2.30
2018-02-23T02:33:18.534Z,2.53
2018-02-23T02:35:44.686Z,2.10
2018-02-23T02:38:10.901Z,2.00
2018-02-23T02:40:37.311Z,2.23
2018-02-23T02:43:03.575Z,2.03
2018-02-23T02:45:29.740Z,2.10
2018-02-23T02:47:55.921Z,2.03
2018-02-23T02:50:22.132Z,2.40
2018-02-23T02:52:48.293Z,2.30
2018-02-23T02:55:14.495Z,2.33
2018-02-23T02:57:40.774Z,2.73
2018-02-23T03:00:06.968Z,1.87
2018-02-23T03:02:33.203Z,2.33
2018-02-23T03:04:59.380Z,2.20
2018-02-23T03:07:25.547Z,2.20
2018-02-23T03:09:51.770Z,2.40
2018-02-23T03:12:17.970Z,1.90
2018-02-23T03:14:44.198Z,1.87
2018-02-23T03:17:10.381Z,2.60
2018-02-23T03:19:36.585Z,2.20
2018-02-23T03:22:02.759Z,1.90
2018-02-23T03:24:28.990Z,2.00
2018-02-23T03:26:55.162Z,2.20
2018-02-23T03:29:21.653Z,1.97
2018-02-23T03:31:47.849Z,1.87
2018-02-23T03:34:14.095Z,2.57
2018-02-23T03:36:40.284Z,1.80
2018-02-23T03:39:06.699Z,2.07
2018-02-23T03:41:32.941Z,2.23
2018-02-23T03:43:59.103Z,2.27
2018-02-23T03:46:25.500Z,1.73
2018-02-23T03:48:51.703Z,2.47
2018-02-23T03:51:17.952Z,2.40
2018-02-23T03:53:44.107Z,1.90
2018-02-23T03:56:10.262Z,1.87
2018-02-23T03:58:36.480Z,1.90
2018-02-23T04:01:02.656Z,2.10
2018-02-23T04:03:29.110Z,2.10
2018-02-23T04:05:55.287Z,1.80
2018-02-23T04:08:21.570Z,1.80
2018-02-23T04:10:47.766Z,2.03
2018-02-23T04:13:13.942Z,1.90
2018-02-23T04:15:40.208Z,2.00
2018-02-23T04:18:06.459Z,2.23
2018-02-23T04:20:32.958Z,1.97
2018-02-23T04:22:59.168Z,1.83
2018-02-23T04:25:25.339Z,1.60
2018-02-23T04:27:51.547Z,2.60
2018-02-23T04:30:18.075Z,1.73
2018-02-23T04:32:44.254Z,1.90
2018-02-23T04:35:10.530Z,2.03
2018-02-23T04:37:36.726Z,1.80
2018-02-23T04:40:03.059Z,2.27
2018-02-23T04:42:29.262Z,2.10
2018-02-23T04:44:55.459Z,2.07
2018-02-23T04:47:21.740Z,2.00
2018-02-23T04:49:47.916Z,2.07
2018-02-23T04:52:14.079Z,2.03
2018-02-23T04:54:40.349Z,2.10
2018-02-23T04:57:06.540Z,2.40
2018-02-23T04:59:32.734Z,1.80
2018-02-23T05:01:58.946Z,1.90
2018-02-23T05:04:25.116Z,1.80
2018-02-23T05:06:51.312Z,1.70
2018-02-23T05:09:17.502Z,2.00
2018-02-23T05:11:43.686Z,1.90
2018-02-23T05:14:09.912Z,1.87
2018-02-23T05:16:36.254Z,2.00
2018-02-23T05:19:02.472Z,1.70
2018-02-23T05:21:28.689Z,2.30
2018-02-23T05:23:54.934Z,1.67
2018-02-23T05:26:21.151Z,1.80
2018-02-23T05:28:47.595Z,2.07
2018-02-23T05:31:13.885Z,2.07
2018-02-23T05:33:40.088Z,1.83
2018-02-23T05:36:06.262Z,1.83
2018-02-23T05:38:32.517Z,2.13
2018-02-23T05:40:59.004Z,1.90
2018-02-23T05:43:25.164Z,2.10
2018-02-23T05:45:51.441Z,1.80
2018-02-23T05:48:17.879Z,1.80
2018-02-23T05:50:44.065Z,1.97
2018-02-23T05:53:10.237Z,1.97
2018-02-23T05:55:36.468Z,1.80
2018-02-23T05:58:02.636Z,1.90
2018-02-23T06:00:29.125Z,1.63
2018-02-23T06:02:55.327Z,1.83
2018-02-23T06:05:21.524Z,2.07
2018-02-23T06:07:47.794Z,2.00
2018-02-23T06:10:13.966Z,2.50
2018-02-23T06:12:40.422Z,2.20
2018-02-23T06:15:06.648Z,2.10
2018-02-23T06:17:38.975Z,2.30
2018-02-23T06:20:08.054Z,2.30
2018-02-23T06:22:34.441Z,2.17
2018-02-23T06:25:00.653Z,2.17
2018-02-23T06:27:26.843Z,2.17
2018-02-23T06:29:53.020Z,2.03
2018-02-23T06:32:19.226Z,1.90
2018-02-23T06:34:45.400Z,2.70
2018-02-23T06:37:11.604Z,2.23
2018-02-23T06:39:37.774Z,1.80
2018-02-23T06:42:03.968Z,2.17
2018-02-23T06:44:30.194Z,3.40
2018-02-23T06:47:02.320Z,2.70
2018-02-23T06:49:28.540Z,2.20
2018-02-23T06:51:54.738Z,2.30
2018-02-23T06:54:20.963Z,3.07
2018-02-23T06:56:47.173Z,2.17
2018-02-23T06:59:13.393Z,2.03
2018-02-23T07:01:39.621Z,2.90
2018-02-23T07:04:05.866Z,2.07
2018-02-23T07:06:32.107Z,2.03
2018-02-23T07:08:58.514Z,2.80
2018-02-23T07:11:24.695Z,2.30
2018-02-23T07:13:55.917Z,2.50
2018-02-23T07:16:22.148Z,2.80
2018-02-23T07:18:48.391Z,2.67
2018-02-23T07:21:14.569Z,2.60
2018-02-23T07:23:40.768Z,2.70
2018-02-23T07:26:07.290Z,2.83
2018-02-23T07:28:33.486Z,2.53
2018-02-23T07:30:59.704Z,2.50
2018-02-23T07:33:25.856Z,2.90
2018-02-23T07:35:52.065Z,3.07
2018-02-23T07:38:18.245Z,2.70
2018-02-23T07:40:44.448Z,2.50
2018-02-23T07:43:10.675Z,2.10
2018-02-23T07:45:36.924Z,2.43
2018-02-23T07:48:03.126Z,2.80
2018-02-23T07:50:29.346Z,2.37
2018-02-23T07:52:55.603Z,2.53
2018-02-23T07:55:22.026Z,2.87
2018-02-23T07:57:48.276Z,2.87
2018-02-23T08:00:14.517Z,2.20
2018-02-23T08:02:40.700Z,2.00
2018-02-23T08:05:07.020Z,2.30
2018-02-23T08:07:33.279Z,2.37
2018-02-23T08:09:59.462Z,2.10
2018-02-23T08:12:25.682Z,2.60
2018-02-23T08:14:51.904Z,2.50
2018-02-23T08:17:18.089Z,2.40
2018-02-23T08:19:44.332Z,2.50
2018-02-23T08:22:10.580Z,2.40
2018-02-23T08:24:38.675Z,2.10
2018-02-23T08:27:10.679Z,2.70
2018-02-23T08:29:36.976Z,2.47
2018-02-23T08:32:06.509Z,2.07
2018-02-23T08:34:35.412Z,2.60
2018-02-23T08:37:04.396Z,2.67
2018-02-23T08:39:36.585Z,3.17
2018-02-23T08:42:02.875Z,2.73
2018-02-23T08:44:31.107Z,2.00
2018-02-23T08:46:57.399Z,2.27
2018-02-23T08:49:23.679Z,2.80
2018-02-23T08:51:51.213Z,3.17
2018-02-23T08:54:18.078Z,2.70
2018-02-23T08:56:44.299Z,2.17
2018-02-23T08:59:10.526Z,2.40
2018-02-23T09:01:36.782Z,3.10
2018-02-23T09:04:02.971Z,2.13
2018-02-23T09:06:29.166Z,2.60
2018-02-23T09:08:55.384Z,2.10
2018-02-23T09:11:21.607Z,2.13
2018-02-23T09:13:47.800Z,2.40
2018-02-23T09:16:14.252Z,2.13
2018-02-23T09:18:40.505Z,3.03
2018-02-23T09:21:06.689Z,2.50
2018-02-23T09:23:32.922Z,2.23
2018-02-23T09:25:59.097Z,2.30
2018-02-23T09:28:25.315Z,2.43
2018-02-23T09:30:51.542Z,2.13
2018-02-23T09:33:17.772Z,2.07
2018-02-23T09:35:43.960Z,2.43
2018-02-23T09:38:10.190Z,2.00
2018-02-23T09:40:36.380Z,2.33
2018-02-23T09:43:02.575Z,2.30
2018-02-23T09:45:28.807Z,2.43
2018-02-23T09:47:55.043Z,2.33
2018-02-23T09:50:21.466Z,1.90
2018-02-23T09:52:47.694Z,2.30
2018-02-23T09:55:14.117Z,2.10
2018-02-23T09:57:40.299Z,1.80
2018-02-23T10:00:06.511Z,2.40
2018-02-23T10:02:32.712Z,2.70
2018-02-23T10:04:58.970Z,2.10
2018-02-23T10:07:25.374Z,2.33
2018-02-23T10:09:51.615Z,2.10
2018-02-23T10:12:17.801Z,1.80
2018-02-23T10:14:43.992Z,2.63
2018-02-23T10:17:10.305Z,2.10
2018-02-23T10:19:36.832Z,2.13
2018-02-23T10:22:03.002Z,2.47
2018-02-23T10:24:29.194Z,2.00
2018-02-23T10:26:55.424Z,2.40
2018-02-23T10:29:21.621Z,2.20
2018-02-23T10:31:47.801Z,2.20
2018-02-23T10:34:14.040Z,2.43
2018-02-23T10:36:40.327Z,2.30
2018-02-23T10:39:06.564Z,2.70
2018-02-23T10:41:32.848Z,1.87
2018-02-23T10:43:59.163Z,2.30
2018-02-23T10:46:26.403Z,2.23
2018-02-23T10:48:52.747Z,2.33
2018-02-23T10:51:19.035Z,2.27
2018-02-23T10:53:45.228Z,2.37
2018-02-23T10:56:11.427Z,2.40
2018-02-23T10:58:37.701Z,2.20
2018-02-23T11:01:03.934Z,2.43
2018-02-23T11:03:30.194Z,2.23
2018-02-23T11:05:56.379Z,2.63
2018-02-23T11:08:22.597Z,1.90
2018-02-23T11:10:48.846Z,2.47
2018-02-23T11:13:15.131Z,2.00
2018-02-23T11:15:41.319Z,2.40
2018-02-23T11:18:07.935Z,2.47
2018-02-23T11:20:34.164Z,2.97
2018-02-23T11:23:00.326Z,2.40
2018-02-23T11:25:26.554Z,2.00
2018-02-23T11:27:52.772Z,2.20
2018-02-23T11:30:19.282Z,2.20
2018-02-23T11:32:45.523Z,2.43
2018-02-23T11:35:11.716Z,2.10
2018-02-23T11:37:37.938Z,2.40
2018-02-23T11:40:04.143Z,2.20
2018-02-23T11:42:30.412Z,2.50
2018-02-23T11:44:56.583Z,1.93
2018-02-23T11:47:23.086Z,2.30
2018-02-23T11:49:49.319Z,2.43
2018-02-23T11:52:15.540Z,2.30
2018-02-23T11:54:41.786Z,2.40
2018-02-23T11:57:07.998Z,2.67
2018-02-23T11:59:34.533Z,2.90
2018-02-23T12:02:00.788Z,2.27
2018-02-23T12:04:27.001Z,2.90
2018-02-23T12:06:53.556Z,2.03
2018-02-23T12:09:19.725Z,2.57
2018-02-23T12:11:45.908Z,2.30
2018-02-23T12:14:12.120Z,1.90
2018-02-23T12:16:38.300Z,2.50
2018-02-23T12:19:04.616Z,2.60
2018-02-23T12:21:30.866Z,2.13
2018-02-23T12:23:57.036Z,2.57
2018-02-23T12:26:23.228Z,2.53
2018-02-23T12:28:49.680Z,2.27
2018-02-23T12:31:15.888Z,2.70
2018-02-23T12:33:42.062Z,2.37
2018-02-23T12:36:08.299Z,2.43
2018-02-23T12:38:34.495Z,2.87
2018-02-23T12:41:00.697Z,2.90
2018-02-23T12:43:26.918Z,2.77
2018-02-23T12:45:53.191Z,2.50
2018-02-23T12:48:19.412Z,2.03
2018-02-23T12:50:45.655Z,2.27
2018-02-23T12:53:11.978Z,2.67
2018-02-23T12:55:38.269Z,2.70
2018-02-23T12:58:04.490Z,2.70
2018-02-23T13:00:30.701Z,3.17
2018-02-23T13:02:56.922Z,3.23
2018-02-23T13:05:23.106Z,2.90
2018-02-23T13:07:49.334Z,2.60
2018-02-23T13:10:15.598Z,2.80
2018-02-23T13:12:41.834Z,2.83
2018-02-23T13:15:14.366Z,3.67
2018-02-23T13:17:40.588Z,3.43
2018-02-23T13:20:06.839Z,5.17
2018-02-23T13:22:33.358Z,6.40
2018-02-23T13:24:59.590Z,4.53
2018-02-23T13:27:26.724Z,4.20
2018-02-23T13:29:53.166Z,4.10
2018-02-23T13:32:19.521Z,4.40
2018-02-23T13:34:45.734Z,4.83
2018-02-23T13:37:11.912Z,4.67
2018-02-23T13:39:38.198Z,4.90
2018-02-23T13:42:04.395Z,4.80
2018-02-23T13:44:30.583Z,4.77
2018-02-23T13:46:56.803Z,4.73
2018-02-23T13:49:23.041Z,4.87
2018-02-23T13:51:49.295Z,4.00
2018-02-23T13:54:21.580Z,4.63
2018-02-23T13:56:47.843Z,4.60
2018-02-23T13:59:14.353Z,4.87
2018-02-23T14:01:40.602Z,4.40
2018-02-23T14:04:06.836Z,3.83
2018-02-23T14:06:33.140Z,4.60
2018-02-23T14:08:59.314Z,4.30
2018-02-23T14:11:25.498Z,3.57
2018-02-23T14:13:51.701Z,4.03
2018-02-23T14:16:17.905Z,4.33
2018-02-23T14:18:44.097Z,3.57
2018-02-23T14:21:10.614Z,3.37
2018-02-23T14:23:36.853Z,3.67
2018-02-23T14:26:03.090Z,3.80
2018-02-23T14:28:29.317Z,3.97
2018-02-23T14:30:55.512Z,3.93
2018-02-23T14:33:22.060Z,3.73
2018-02-23T14:35:48.293Z,4.03
2018-02-23T14:38:14.538Z,3.80
2018-02-23T14:40:40.778Z,4.03
2018-02-23T14:43:06.991Z,3.47
2018-02-23T14:45:33.230Z,3.70
2018-02-23T14:47:59.442Z,3.97
2018-02-23T14:50:37.958Z,3.63
2018-02-23T14:53:04.483Z,3.70
2018-02-23T14:55:30.687Z,3.43
2018-02-23T14:57:56.930Z,3.93
2018-02-23T15:00:23.115Z,4.03
2018-02-23T15:02:49.308Z,3.20
2018-02-23T15:05:15.524Z,3.67
2018-02-23T15:07:41.720Z,3.70
2018-02-23T15:10:07.909Z,4.07
2018-02-23T15:12:34.143Z,3.70
2018-02-23T15:15:00.354Z,3.03
2018-02-23T15:17:26.563Z,3.67
2018-02-23T15:19:52.979Z,3.70
2018-02-23T15:22:19.201Z,4.07
2018-02-23T15:24:45.479Z,3.20
2018-02-23T15:27:11.784Z,3.70
2018-02-23T15:29:38.320Z,3.30
2018-02-23T15:32:16.777Z,3.33
2018-02-23T15:34:42.960Z,3.23
2018-02-23T15:37:09.201Z,3.20
2018-02-23T15:39:35.721Z,2.87
2018-02-23T15:42:01.894Z,4.10
2018-02-23T15:44:28.114Z,3.30
2018-02-23T15:46:54.339Z,3.47
2018-02-23T15:52:20.963Z,3.80
2018-02-23T15:54:47.214Z,3.43
2018-02-23T15:57:15.386Z,3.20
2018-02-23T15:59:41.611Z,3.73
2018-02-23T16:02:07.838Z,2.83
2018-02-23T16:04:34.412Z,3.57
2018-02-23T16:07:00.672Z,3.40
2018-02-23T16:09:27.135Z,3.10
2018-02-23T16:11:53.364Z,3.00
2018-02-23T16:14:19.877Z,3.10
2018-02-23T16:16:46.112Z,3.23
2018-02-23T16:19:12.436Z,3.20
2018-02-23T16:21:38.644Z,3.27
2018-02-23T16:24:04.897Z,3.00
2018-02-23T16:26:31.097Z,2.77
2018-02-23T16:28:57.583Z,2.67
2018-02-23T16:31:23.799Z,3.80
2018-02-23T16:33:50.040Z,2.97
2018-02-23T16:36:16.205Z,2.90
2018-02-23T16:38:42.780Z,2.97
2018-02-23T16:41:09.014Z,3.00
2018-02-23T16:43:35.321Z,2.63
2018-02-23T16:46:01.536Z,3.13
2018-02-23T16:48:28.107Z,3.30
2018-02-23T16:50:54.632Z,3.27
2018-02-23T16:53:20.863Z,3.40
2018-02-23T16:55:47.057Z,3.57
2018-02-23T16:58:13.329Z,3.37
2018-02-23T17:00:39.527Z,3.03
2018-02-23T17:03:05.720Z,2.90
2018-02-23T17:05:31.932Z,3.07
2018-02-23T17:07:58.157Z,3.33
2018-02-23T17:10:24.455Z,3.30
2018-02-23T17:12:50.640Z,3.10
2018-02-23T17:15:16.899Z,3.10
2018-02-23T17:17:43.345Z,3.43
2018-02-23T17:20:09.504Z,2.97
2018-02-23T17:22:35.686Z,2.70
2018-02-23T17:25:01.910Z,2.73
2018-02-23T17:27:28.104Z,2.70
2018-02-23T17:29:54.327Z,3.30
2018-02-23T17:32:20.534Z,2.53
2018-02-23T17:34:46.765Z,2.47
2018-02-23T17:37:12.976Z,3.00
2018-02-23T17:39:39.219Z,2.50
2018-02-23T17:42:05.443Z,3.03
2018-02-23T17:44:31.635Z,2.73
2018-02-23T17:46:58.188Z,3.07
2018-02-23T17:49:24.380Z,2.93
2018-02-23T17:51:50.584Z,3.13
2018-02-23T17:54:16.795Z,3.10
2018-02-23T17:56:43.027Z,2.90
2018-02-23T17:59:09.222Z,2.93
2018-02-23T18:01:35.756Z,3.50
2018-02-23T18:04:01.993Z,3.17
2018-02-23T18:06:28.195Z,2.77
2018-02-23T18:08:54.385Z,2.73
2018-02-23T18:11:20.654Z,2.30
2018-02-23T18:13:47.111Z,2.60
2018-02-23T18:16:13.324Z,3.10
2018-02-23T18:18:39.529Z,3.00
2018-02-23T18:21:05.723Z,2.80
2018-02-23T18:23:31.907Z,2.63
2018-02-23T18:25:58.158Z,2.57
2018-02-23T18:28:24.356Z,2.60
2018-02-23T18:30:50.913Z,3.23
2018-02-23T18:33:17.125Z,2.47
2018-02-23T18:35:43.315Z,3.00
2018-02-23T18:38:09.552Z,2.60
2018-02-23T18:40:35.792Z,2.80
2018-02-23T18:43:01.951Z,3.27
2018-02-23T18:45:28.145Z,2.47
2018-02-23T18:47:54.412Z,3.03
2018-02-23T18:50:20.601Z,2.77
2018-02-23T18:52:46.764Z,2.60
2018-02-23T18:55:12.984Z,2.70
2018-02-23T18:57:39.168Z,2.83
2018-02-23T19:00:05.399Z,2.67
2018-02-23T19:02:31.583Z,2.93
2018-02-23T19:04:57.817Z,2.77
2018-02-23T19:07:24.071Z,2.87
2018-02-23T19:09:50.557Z,2.60
2018-02-23T19:12:16.746Z,2.97
2018-02-23T19:14:43.014Z,2.83
2018-02-23T19:17:09.277Z,2.57
2018-02-23T19:19:35.503Z,2.53
2018-02-23T19:22:01.773Z,2.53
2018-02-23T19:24:27.969Z,2.30
2018-02-23T19:27:00.604Z,2.20
2018-02-23T19:29:26.862Z,2.40
2018-02-23T19:31:53.070Z,2.60
2018-02-23T19:34:19.278Z,2.53
2018-02-23T19:36:45.514Z,3.20
2018-02-23T19:39:12.072Z,2.60
2018-02-23T19:41:38.264Z,2.77
2018-02-23T19:44:04.493Z,2.43
2018-02-23T19:46:30.671Z,2.93
2018-02-23T19:48:56.834Z,3.00
2018-02-23T19:51:23.062Z,2.47
2018-02-23T19:53:49.253Z,2.87
2018-02-23T19:56:15.418Z,2.40
2018-02-23T19:58:41.881Z,2.90
2018-02-23T20:01:08.052Z,2.63
2018-02-23T20:03:34.538Z,2.70
2018-02-23T20:06:00.713Z,2.00
2018-02-23T20:08:26.905Z,2.13
2018-02-23T20:10:53.097Z,2.80
2018-02-23T20:13:19.289Z,2.90
2018-02-23T20:15:45.500Z,2.87
2018-02-23T20:18:11.712Z,2.40
2018-02-23T20:20:37.917Z,2.37
2018-02-23T20:23:04.096Z,2.10
2018-02-23T20:25:30.440Z,2.50
2018-02-23T20:27:56.723Z,2.10
2018-02-23T20:30:22.913Z,2.60
2018-02-23T20:32:49.076Z,2.50
2018-02-23T20:35:15.256Z,2.13
2018-02-23T20:37:41.425Z,2.70
2018-02-23T20:40:07.633Z,2.37
2018-02-23T20:42:33.794Z,2.60
2018-02-23T20:45:00.013Z,2.50
2018-02-23T20:47:26.224Z,2.53
2018-02-23T20:49:52.469Z,2.50
2018-02-23T20:52:19.000Z,2.70
2018-02-23T20:54:45.164Z,2.70
2018-02-23T20:57:11.441Z,2.43
2018-02-23T20:59:37.991Z,2.10
2018-02-23T21:02:04.203Z,2.13
2018-02-23T21:04:30.454Z,2.67
2018-02-23T21:06:56.984Z,2.60
2018-02-23T21:09:23.137Z,2.60
2018-02-23T21:11:49.344Z,2.60
2018-02-23T21:14:15.883Z,2.83
2018-02-23T21:16:42.078Z,2.87
2018-02-23T21:19:08.270Z,2.87
2018-02-23T21:21:34.479Z,2.80
2018-02-23T21:24:00.665Z,2.30
2018-02-23T21:26:26.864Z,2.73
2018-02-23T21:28:53.113Z,2.80
2018-02-23T21:31:19.317Z,2.50
2018-02-23T21:33:45.539Z,2.80
2018-02-23T21:36:11.725Z,2.57
2018-02-23T21:38:37.940Z,2.50
2018-02-23T21:41:04.119Z,2.23
2018-02-23T21:43:30.317Z,2.47
2018-02-23T21:45:56.511Z,2.93
2018-02-23T21:48:22.712Z,3.00
2018-02-23T21:50:48.931Z,2.17
2018-02-23T21:53:15.421Z,2.57
2018-02-23T21:55:41.569Z,3.10
2018-02-23T21:58:07.768Z,3.13
2018-02-23T22:00:33.988Z,3.03
2018-02-23T22:03:00.212Z,2.17
2018-02-23T22:05:26.417Z,2.67
2018-02-23T22:07:52.653Z,2.40
2018-02-23T22:10:18.820Z,2.60
2018-02-23T22:12:44.976Z,2.37
2018-02-23T22:15:11.153Z,2.50
2018-02-23T22:17:37.368Z,2.57
2018-02-23T22:20:03.642Z,2.23
2018-02-23T22:22:30.158Z,2.80
2018-02-23T22:24:56.700Z,2.87
2018-02-23T22:27:22.949Z,3.00
2018-02-23T22:29:49.207Z,2.50
2018-02-23T22:32:15.450Z,2.50
2018-02-23T22:34:42.023Z,2.30
2018-02-23T22:37:08.262Z,2.73
2018-02-23T22:39:34.464Z,2.93
2018-02-23T22:42:00.748Z,2.37
2018-02-23T22:44:26.909Z,2.20
2018-02-23T22:46:53.066Z,2.40
2018-02-23T22:49:19.285Z,2.97
2018-02-23T22:51:45.504Z,2.40
2018-02-23T22:54:11.732Z,2.30
2018-02-23T22:56:37.972Z,2.33
2018-02-23T22:59:04.150Z,2.00
2018-02-23T23:01:30.338Z,2.63
2018-02-23T23:03:56.555Z,2.70
2018-02-23T23:06:23.196Z,2.80
2018-02-23T23:08:49.412Z,2.70
2018-02-23T23:11:15.611Z,2.77
2018-02-23T23:13:41.796Z,2.13
2018-02-23T23:16:08.070Z,2.30
2018-02-23T23:18:34.505Z,2.67
2018-02-23T23:21:00.700Z,2.80
2018-02-23T23:23:26.880Z,2.30
2018-02-23T23:25:53.129Z,2.57
2018-02-23T23:28:19.344Z,2.13
2018-02-23T23:30:45.574Z,2.40
2018-02-23T23:33:11.737Z,2.33
2018-02-23T23:35:37.911Z,2.27
2018-02-23T23:38:04.105Z,2.60
2018-02-23T23:40:30.264Z,2.70
2018-02-23T23:42:56.482Z,2.30
2018-02-23T23:45:22.653Z,2.83
2018-02-23T23:47:48.848Z,2.50
2018-02-23T23:50:15.299Z,2.17
2018-02-23T23:52:41.579Z,2.60
2018-02-23T23:55:08.060Z,2.33
2018-02-23T23:57:34.272Z,2.53
